Time;durP1;ratioP1;P1;durP2;ratioP2;P2;SDS_P1;SDS_P2;PMS_P1;PMS_P2;Temp;Humidity;BMP_temperature;BMP_pressure;BME280_temperature;BME280_humidity;BME280_pressure;Samples;Min_cycle;Max_cycle;Signal;HPM_P1;HPM_P2
2023/09/14 00:00:13;;;;;;;20.67;11.20;;;;;;;;;;5030503;28;20402;-62
2023/09/14 00:02:39;;;;;;;19.45;10.27;;;;;;;;;;5033162;28;20139;-63
2023/09/14 00:05:05;;;;;;;22.95;11.30;;;;;;;;;;5033046;28;20025;-62
2023/09/14 00:07:32;;;;;;;18.90;10.43;;;;;;;;;;5032858;28;20390;-62
2023/09/14 00:09:58;;;;;;;19.70;10.40;;;;;;;;;;5032852;28;20037;-63
2023/09/14 00:12:24;;;;;;;19.38;10.60;;;;;;;;;;5033186;28;20052;-62
2023/09/14 00:14:50;;;;;;;21.40;10.57;;;;;;;;;;5033239;28;20139;-62
2023/09/14 00:17:16;;;;;;;18.50;10.13;;;;;;;;;;5032944;28;20029;-63
2023/09/14 00:19:42;;;;;;;19.48;11.00;;;;;;;;;;5033366;28;20080;-62
2023/09/14 00:22:08;;;;;;;19.58;10.40;;;;;;;;;;5033140;28;20022;-62
2023/09/14 00:24:34;;;;;;;19.75;10.45;;;;;;;;;;5015422;28;20022;-61
2023/09/14 00:27:00;;;;;;;21.48;11.55;;;;;;;;;;5032959;28;20458;-62
2023/09/14 00:29:26;;;;;;;19.10;10.25;;;;;;;;;;5040886;28;20037;-63
2023/09/14 00:31:52;;;;;;;21.80;10.25;;;;;;;;;;5032182;28;20025;-62
2023/09/14 00:34:18;;;;;;;22.02;10.30;;;;;;;;;;5032950;28;20022;-63
2023/09/14 00:36:44;;;;;;;18.88;9.75;;;;;;;;;;5032957;28;20045;-62
2023/09/14 00:39:10;;;;;;;19.23;10.50;;;;;;;;;;5032682;28;20076;-62
2023/09/14 00:41:36;;;;;;;18.02;9.77;;;;;;;;;;5031506;28;20394;-61
2023/09/14 00:44:02;;;;;;;22.48;11.48;;;;;;;;;;5031222;28;20060;-62
2023/09/14 00:46:29;;;;;;;17.95;10.63;;;;;;;;;;5031047;28;20029;-62
2023/09/14 00:48:56;;;;;;;18.27;10.02;;;;;;;;;;5031036;28;20108;-62
2023/09/14 00:51:23;;;;;;;18.05;9.77;;;;;;;;;;5031154;28;20083;-62
2023/09/14 00:53:50;;;;;;;18.95;9.80;;;;;;;;;;5031685;28;20026;-62
2023/09/14 00:56:16;;;;;;;19.67;9.40;;;;;;;;;;5033775;28;20029;-62
2023/09/14 00:58:42;;;;;;;22.63;9.98;;;;;;;;;;5036148;28;20026;-62
2023/09/14 01:01:08;;;;;;;20.25;9.57;;;;;;;;;;5035859;28;20025;-62
2023/09/14 01:03:35;;;;;;;17.30;8.95;;;;;;;;;;5035904;28;20468;-62
2023/09/14 01:06:01;;;;;;;21.55;9.80;;;;;;;;;;5036289;28;20021;-62
2023/09/14 01:08:27;;;;;;;20.23;9.52;;;;;;;;;;5036026;28;20018;-62
2023/09/14 01:10:54;;;;;;;21.00;10.35;;;;;;;;;;5036252;28;20096;-63
2023/09/14 01:13:29;;;;;;;18.33;9.18;;;;;;;;;;5036548;28;20066;-62
2023/09/14 01:15:59;;;;;;;19.05;9.82;;;;;;;;;;5036248;28;20065;-62
2023/09/14 01:18:25;;;;;;;19.65;9.68;;;;;;;;;;5036130;28;20036;-63
2023/09/14 01:20:54;;;;;;;20.80;8.88;;;;;;;;;;5027687;28;20029;-62
2023/09/14 01:23:20;;;;;;;;;;;;;;;;;;5036329;28;20041;-62
2023/09/14 01:25:47;;;;;;;19.33;9.77;;;;;;;;;;5018526;28;19909;-63
2023/09/14 01:28:14;;;;;;;18.65;8.90;;;;;;;;;;5035788;28;20539;-60
2023/09/14 01:30:42;;;;;;;21.55;9.05;;;;;;;;;;5035941;28;20049;-62
2023/09/14 01:33:12;;;;;;;16.85;8.50;;;;;;;;;;5034319;28;20395;-62
2023/09/14 01:35:43;;;;;;;22.35;9.25;;;;;;;;;;5036558;28;20022;-63
2023/09/14 01:38:10;;;;;;;20.73;8.93;;;;;;;;;;5036015;28;20025;-62
2023/09/14 01:40:36;;;;;;;19.60;8.90;;;;;;;;;;5035246;28;20385;-62
2023/09/14 01:43:02;;;;;;;20.58;8.63;;;;;;;;;;5035670;28;20021;-63
2023/09/14 01:45:29;;;;;;;19.50;9.07;;;;;;;;;;5035439;28;20112;-62
2023/09/14 01:47:56;;;;;;;16.98;8.55;;;;;;;;;;5035263;28;20104;-62
2023/09/14 01:50:22;;;;;;;20.35;8.82;;;;;;;;;;5034753;28;20061;-62
2023/09/14 01:52:49;;;;;;;20.17;8.75;;;;;;;;;;5035526;28;20057;-62
2023/09/14 01:55:17;;;;;;;18.27;8.70;;;;;;;;;;5036386;28;20018;-62
2023/09/14 01:57:43;;;;;;;16.67;7.90;;;;;;;;;;5035297;28;20017;-63
2023/09/14 02:00:09;;;;;;;18.55;7.90;;;;;;;;;;5034784;28;20024;-62
2023/09/14 02:02:35;;;;;;;20.42;8.55;;;;;;;;;;5035442;28;20128;-63
2023/09/14 02:05:01;;;;;;;18.48;8.02;;;;;;;;;;5035048;28;20026;-62
2023/09/14 02:07:27;;;;;;;17.48;8.25;;;;;;;;;;5034461;28;20017;-60
2023/09/14 02:09:53;;;;;;;16.75;8.10;;;;;;;;;;5034781;28;20091;-63
2023/09/14 02:12:20;;;;;;;18.70;8.43;;;;;;;;;;5034588;28;20041;-62
2023/09/14 02:14:46;;;;;;;20.35;7.93;;;;;;;;;;5034609;28;20105;-62
2023/09/14 02:17:12;;;;;;;17.23;7.57;;;;;;;;;;5035183;28;20021;-62
2023/09/14 02:19:38;;;;;;;18.88;8.60;;;;;;;;;;5034494;28;20537;-62
2023/09/14 02:22:04;;;;;;;19.83;7.75;;;;;;;;;;5033570;28;20030;-63
2023/09/14 02:24:30;;;;;;;20.80;8.32;;;;;;;;;;5035179;28;20455;-63
2023/09/14 02:26:56;;;;;;;16.83;7.80;;;;;;;;;;5034793;28;20025;-62
2023/09/14 02:29:22;;;;;;;28.65;9.23;;;;;;;;;;5034346;28;20022;-62
2023/09/14 02:31:48;;;;;;;18.20;7.63;;;;;;;;;;5034318;28;20087;-62
2023/09/14 02:34:14;;;;;;;18.52;8.43;;;;;;;;;;5034521;28;20388;-62
2023/09/14 02:36:40;;;;;;;17.23;8.73;;;;;;;;;;5034577;28;20073;-63
2023/09/14 02:39:06;;;;;;;20.17;8.63;;;;;;;;;;5034201;28;20029;-63
2023/09/14 02:41:32;;;;;;;18.90;8.27;;;;;;;;;;5034318;28;20041;-63
2023/09/14 02:43:58;;;;;;;20.23;7.80;;;;;;;;;;5035179;28;20044;-63
2023/09/14 02:46:24;;;;;;;18.77;8.77;;;;;;;;;;5034352;28;20029;-62
2023/09/14 02:48:51;;;;;;;17.67;8.55;;;;;;;;;;5034065;28;20483;-63
2023/09/14 02:51:17;;;;;;;18.80;8.55;;;;;;;;;;5033819;28;20029;-62
2023/09/14 02:53:43;;;;;;;20.65;8.75;;;;;;;;;;5034170;28;20022;-62
2023/09/14 02:56:10;;;;;;;20.08;8.93;;;;;;;;;;5034251;28;20047;-63
2023/09/14 02:58:36;;;;;;;16.83;8.00;;;;;;;;;;5033664;28;20017;-62
2023/09/14 03:01:11;;;;;;;19.60;9.25;;;;;;;;;;5033390;28;20022;-62
2023/09/14 03:03:40;;;;;;;20.30;8.90;;;;;;;;;;5034441;28;20550;-62
2023/09/14 03:06:06;;;;;;;20.02;8.60;;;;;;;;;;5026083;28;20045;-62
2023/09/14 03:08:33;;;;;;;19.38;8.63;;;;;;;;;;5032653;28;20188;-63
2023/09/14 03:10:59;;;;;;;16.83;7.97;;;;;;;;;;5033472;28;20036;-62
2023/09/14 03:13:25;;;;;;;22.75;8.90;;;;;;;;;;5025325;28;20147;-62
2023/09/14 03:15:55;;;;;;;19.05;8.45;;;;;;;;;;5033552;28;20045;-63
2023/09/14 03:18:21;;;;;;;19.13;8.30;;;;;;;;;;5032828;28;20037;-63
2023/09/14 03:20:50;;;;;;;18.50;8.00;;;;;;;;;;5033102;28;20057;-60
2023/09/14 03:23:16;;;;;;;26.63;11.57;;;;;;;;;;5033683;28;20070;-62
2023/09/14 03:25:42;;;;;;;20.05;8.90;;;;;;;;;;5034025;28;20072;-63
2023/09/14 03:28:09;;;;;;;18.52;8.30;;;;;;;;;;5033408;28;20034;-63
2023/09/14 03:30:38;;;;;;;19.33;8.88;;;;;;;;;;5041309;28;20025;-62
2023/09/14 03:33:04;;;;;;;19.52;9.18;;;;;;;;;;5033843;28;20033;-61
2023/09/14 03:35:30;;;;;;;18.23;8.75;;;;;;;;;;5033303;28;20014;-63
2023/09/14 03:37:56;;;;;;;19.13;8.88;;;;;;;;;;5031766;28;20021;-62
2023/09/14 03:40:22;;;;;;;19.75;8.77;;;;;;;;;;5034181;28;20506;-63
2023/09/14 03:42:49;;;;;;;19.30;8.93;;;;;;;;;;5039401;28;20025;-63
2023/09/14 03:45:15;;;;;;;21.73;9.60;;;;;;;;;;5032959;28;20034;-62
2023/09/14 03:47:41;;;;;;;20.30;8.40;;;;;;;;;;5030998;28;20030;-62
2023/09/14 03:50:08;;;;;;;18.98;8.05;;;;;;;;;;5031979;28;20479;-62
2023/09/14 03:52:35;;;;;;;21.20;9.73;;;;;;;;;;5033196;28;20076;-63
2023/09/14 03:55:01;;;;;;;18.80;8.63;;;;;;;;;;5033278;28;20159;-62
2023/09/14 03:57:28;;;;;;;19.63;9.75;;;;;;;;;;5032772;28;20063;-62
2023/09/14 03:59:54;;;;;;;17.92;8.63;;;;;;;;;;5037873;28;20123;-63
2023/09/14 04:02:20;;;;;;;19.85;9.35;;;;;;;;;;5035115;28;20033;-62
2023/09/14 04:04:46;;;;;;;20.15;9.05;;;;;;;;;;5031467;28;20029;-62
2023/09/14 04:07:12;;;;;;;31.27;10.65;;;;;;;;;;5024625;28;20115;-62
2023/09/14 04:09:41;;;;;;;22.10;9.30;;;;;;;;;;5032712;28;20096;-62
2023/09/14 04:12:07;;;;;;;20.27;8.90;;;;;;;;;;5032849;28;20018;-62
2023/09/14 04:14:34;;;;;;;20.40;8.50;;;;;;;;;;5032419;28;20409;-62
2023/09/14 04:17:01;;;;;;;20.02;9.05;;;;;;;;;;5032364;28;20022;-62
2023/09/14 04:19:28;;;;;;;18.50;9.00;;;;;;;;;;5031592;28;20040;-62
2023/09/14 04:21:54;;;;;;;20.17;9.20;;;;;;;;;;5031383;28;20539;-62
2023/09/14 04:24:20;;;;;;;18.45;9.07;;;;;;;;;;5032236;28;20060;-62
2023/09/14 04:26:46;;;;;;;19.58;9.45;;;;;;;;;;5022566;28;20083;-62
2023/09/14 04:29:13;;;;;;;21.95;9.63;;;;;;;;;;5031779;28;20100;-63
2023/09/14 04:31:40;;;;;;;18.35;8.70;;;;;;;;;;5028962;28;20130;-62
2023/09/14 04:34:07;;;;;;;20.70;8.50;;;;;;;;;;5031604;28;20117;-62
2023/09/14 04:36:33;;;;;;;20.08;8.70;;;;;;;;;;5031827;28;20057;-62
2023/09/14 04:39:03;;;;;;;24.52;9.00;;;;;;;;;;5031778;28;20021;-59
2023/09/14 04:41:30;;;;;;;18.65;9.00;;;;;;;;;;5029455;28;20026;-62
2023/09/14 04:43:56;;;;;;;23.02;9.38;;;;;;;;;;5031728;28;20029;-62
2023/09/14 04:46:22;;;;;;;20.30;8.48;;;;;;;;;;5031665;28;20033;-62
2023/09/14 04:48:49;;;;;;;24.60;9.70;;;;;;;;;;5032014;28;20026;-61
2023/09/14 04:51:15;;;;;;;18.17;8.77;;;;;;;;;;5031362;28;20282;-62
2023/09/14 04:53:41;;;;;;;22.65;10.63;;;;;;;;;;5031983;28;20706;-62
2023/09/14 04:56:07;;;;;;;21.65;8.95;;;;;;;;;;5031820;28;20018;-62
2023/09/14 04:58:33;;;;;;;22.23;9.63;;;;;;;;;;5031548;28;20044;-64
2023/09/14 05:00:59;;;;;;;22.85;11.63;;;;;;;;;;5031413;28;20030;-60
2023/09/14 05:03:25;;;;;;;27.25;15.57;;;;;;;;;;5031532;28;20107;-62
2023/09/14 05:05:52;;;;;;;24.85;11.90;;;;;;;;;;5032098;28;20037;-62
2023/09/14 05:08:18;;;;;;;22.98;10.35;;;;;;;;;;5031746;28;20064;-63
2023/09/14 05:10:44;;;;;;;31.52;17.63;;;;;;;;;;5031250;28;20033;-62
2023/09/14 05:13:10;;;;;;;27.52;14.25;;;;;;;;;;5024501;28;20026;-62
2023/09/14 05:15:36;;;;;;;28.45;15.98;;;;;;;;;;5031230;28;20041;-62
2023/09/14 05:18:02;;;;;;;22.55;12.93;;;;;;;;;;5031891;28;20025;-62
2023/09/14 05:20:28;;;;;;;19.98;10.80;;;;;;;;;;5031824;28;20430;-63
2023/09/14 05:22:54;;;;;;;26.90;14.68;;;;;;;;;;5039641;28;20030;-62
2023/09/14 05:25:20;;;;;;;32.13;19.77;;;;;;;;;;5031344;28;20112;-63
2023/09/14 05:27:47;;;;;;;32.28;17.98;;;;;;;;;;5031367;28;20025;-62
2023/09/14 05:30:13;;;;;;;26.85;14.88;;;;;;;;;;5031339;28;20045;-63
2023/09/14 05:32:39;;;;;;;25.05;13.02;;;;;;;;;;5024043;28;20140;-63
2023/09/14 05:35:09;;;;;;;27.52;14.68;;;;;;;;;;5013954;28;20048;-63
2023/09/14 05:37:35;;;;;;;24.92;12.90;;;;;;;;;;5013483;28;20056;-63
2023/09/14 05:40:09;;;;;;;19.85;9.85;;;;;;;;;;5030909;28;20049;-63
2023/09/14 05:42:37;;;;;;;20.65;9.77;;;;;;;;;;5030786;28;20084;-63
2023/09/14 05:45:04;;;;;;;21.77;10.05;;;;;;;;;;5032339;28;20021;-63
2023/09/14 05:47:30;;;;;;;22.42;11.70;;;;;;;;;;5035829;28;20108;-62
2023/09/14 05:49:55;;;;;;;25.30;13.70;;;;;;;;;;5037072;28;20190;-63
2023/09/14 05:52:21;;;;;;;24.60;12.15;;;;;;;;;;5037671;28;20025;-61
2023/09/14 05:54:47;;;;;;;26.23;11.65;;;;;;;;;;5037929;28;20030;-63
2023/09/14 05:57:14;;;;;;;20.70;10.82;;;;;;;;;;5035171;28;20367;-62
2023/09/14 05:59:40;;;;;;;22.05;12.05;;;;;;;;;;5024246;28;20054;-62
2023/09/14 06:02:06;;;;;;;25.88;12.23;;;;;;;;;;5030914;28;20121;-62
2023/09/14 06:04:32;;;;;;;21.35;11.63;;;;;;;;;;5035850;28;20044;-61
2023/09/14 06:06:58;;;;;;;25.50;11.88;;;;;;;;;;5028670;28;20452;-64
2023/09/14 06:09:26;;;;;;;20.52;11.73;;;;;;;;;;5035661;28;20025;-62
2023/09/14 06:11:52;;;;;;;22.97;11.77;;;;;;;;;;5036119;28;20387;-62
2023/09/14 06:14:18;;;;;;;21.85;11.10;;;;;;;;;;5033062;28;20028;-63
2023/09/14 06:16:44;;;;;;;22.92;12.82;;;;;;;;;;5035498;28;20049;-62
2023/09/14 06:19:10;;;;;;;23.50;12.40;;;;;;;;;;5034964;28;20029;-61
2023/09/14 06:21:36;;;;;;;24.92;14.77;;;;;;;;;;5034839;28;20025;-61
2023/09/14 06:24:02;;;;;;;27.00;13.25;;;;;;;;;;5035250;28;20060;-62
2023/09/14 06:26:28;;;;;;;21.05;11.82;;;;;;;;;;5035356;28;20449;-63
2023/09/14 06:28:55;;;;;;;23.50;12.85;;;;;;;;;;5035164;28;20033;-62
2023/09/14 06:31:22;;;;;;;36.67;25.52;;;;;;;;;;5032263;28;20022;-62
2023/09/14 06:33:49;;;;;;;32.88;22.48;;;;;;;;;;5034870;28;20036;-62
2023/09/14 06:36:18;;;;;;;22.45;14.07;;;;;;;;;;5035561;28;20394;-62
2023/09/14 06:38:44;;;;;;;;;;;;;;;;;;5035705;28;20021;-63
2023/09/14 06:41:10;;;;;;;19.08;12.07;;;;;;;;;;5035307;28;20323;-62
2023/09/14 06:43:36;;;;;;;20.33;11.68;;;;;;;;;;5034742;28;20020;-63
2023/09/14 06:46:02;;;;;;;22.77;12.43;;;;;;;;;;5035115;28;20368;-62
2023/09/14 06:48:28;;;;;;;21.52;11.90;;;;;;;;;;5035081;28;20129;-62
2023/09/14 06:50:54;;;;;;;25.17;13.45;;;;;;;;;;5017100;28;20029;-62
2023/09/14 06:53:20;;;;;;;30.15;21.20;;;;;;;;;;5015822;28;20057;-62
2023/09/14 06:55:46;;;;;;;26.90;18.25;;;;;;;;;;5034201;28;20510;-61
2023/09/14 06:58:12;;;;;;;25.65;15.40;;;;;;;;;;5034683;28;20067;-62
2023/09/14 07:00:38;;;;;;;20.95;11.82;;;;;;;;;;5025478;28;20032;-51
2023/09/14 07:03:04;;;;;;;20.13;11.63;;;;;;;;;;5031622;28;20069;-49
2023/09/14 07:05:32;;;;;;;22.27;14.23;;;;;;;;;;5031722;28;20141;-51
2023/09/14 07:07:59;;;;;;;32.17;22.00;;;;;;;;;;5031744;28;20044;-53
2023/09/14 07:10:25;;;;;;;23.35;13.07;;;;;;;;;;5031434;28;20083;-52
2023/09/14 07:12:51;;;;;;;21.10;14.10;;;;;;;;;;5031527;28;20111;-50
2023/09/14 07:15:17;;;;;;;24.30;12.82;;;;;;;;;;5031165;28;20021;-54
2023/09/14 07:17:43;;;;;;;21.98;13.40;;;;;;;;;;5031171;28;20386;-47
2023/09/14 07:20:09;;;;;;;21.27;14.13;;;;;;;;;;5030947;28;20025;-48
2023/09/14 07:22:37;;;;;;;21.00;13.43;;;;;;;;;;5030669;28;20100;-52
2023/09/14 07:25:04;;;;;;;20.92;13.15;;;;;;;;;;5038991;28;20104;-47
2023/09/14 07:27:30;;;;;;;28.40;14.77;;;;;;;;;;5032466;28;20022;-52
2023/09/14 07:29:56;;;;;;;22.52;13.02;;;;;;;;;;5042131;28;20029;-48
2023/09/14 07:32:23;;;;;;;23.17;13.40;;;;;;;;;;5043401;28;20379;-57
2023/09/14 07:34:48;;;;;;;20.25;13.07;;;;;;;;;;5029190;28;20025;-58
2023/09/14 07:37:14;;;;;;;22.75;12.75;;;;;;;;;;5029506;28;20606;-54
2023/09/14 07:39:40;;;;;;;19.70;12.75;;;;;;;;;;5029213;28;20040;-54
2023/09/14 07:42:06;;;;;;;21.88;13.50;;;;;;;;;;5029458;28;20156;-55
2023/09/14 07:44:32;;;;;;;20.77;12.93;;;;;;;;;;5029453;28;20100;-53
2023/09/14 07:46:58;;;;;;;19.10;12.50;;;;;;;;;;5029856;28;20026;-55
2023/09/14 07:49:24;;;;;;;18.42;12.60;;;;;;;;;;5031021;28;20373;-55
2023/09/14 07:51:50;;;;;;;23.73;15.80;;;;;;;;;;5030387;28;20045;-54
2023/09/14 07:54:16;;;;;;;18.73;12.15;;;;;;;;;;5030843;28;20018;-55
2023/09/14 07:56:43;;;;;;;22.30;12.70;;;;;;;;;;5030580;28;20018;-54
2023/09/14 07:59:09;;;;;;;16.92;12.13;;;;;;;;;;5030214;28;20013;-55
2023/09/14 08:01:35;;;;;;;21.23;13.70;;;;;;;;;;5030019;28;20099;-57
2023/09/14 08:04:02;;;;;;;21.52;13.13;;;;;;;;;;5030315;28;20041;-56
2023/09/14 08:06:29;;;;;;;19.60;12.50;;;;;;;;;;5030017;28;20079;-56
2023/09/14 08:08:55;;;;;;;22.95;12.63;;;;;;;;;;5030242;28;20057;-53
2023/09/14 08:11:21;;;;;;;22.88;14.15;;;;;;;;;;5012183;28;20037;-56
2023/09/14 08:13:47;;;;;;;19.45;12.77;;;;;;;;;;5030064;28;20493;-57
2023/09/14 08:16:13;;;;;;;20.58;12.35;;;;;;;;;;5030193;28;20101;-56
2023/09/14 08:18:39;;;;;;;17.75;12.48;;;;;;;;;;5030023;28;20376;-53
2023/09/14 08:21:05;;;;;;;18.80;11.68;;;;;;;;;;5030019;28;20033;-55
2023/09/14 08:23:31;;;;;;;19.05;11.70;;;;;;;;;;5012401;28;20105;-56
2023/09/14 08:25:57;;;;;;;19.38;12.25;;;;;;;;;;5030278;28;20090;-55
2023/09/14 08:28:23;;;;;;;24.38;13.88;;;;;;;;;;5029443;28;20026;-52
2023/09/14 08:30:49;;;;;;;25.60;17.63;;;;;;;;;;5030066;28;20030;-56
2023/09/14 08:33:18;;;;;;;20.58;13.95;;;;;;;;;;5030025;28;20060;-57
2023/09/14 08:35:45;;;;;;;23.05;12.93;;;;;;;;;;5030061;28;20026;-54
2023/09/14 08:38:11;;;;;;;19.75;12.50;;;;;;;;;;5029942;28;20017;-57
2023/09/14 08:40:37;;;;;;;18.27;11.60;;;;;;;;;;5029839;28;20026;-55
2023/09/14 08:43:03;;;;;;;20.42;12.80;;;;;;;;;;5030076;28;20033;-58
2023/09/14 08:45:33;;;;;;;21.48;14.00;;;;;;;;;;5029947;28;20028;-54
2023/09/14 08:48:00;;;;;;;19.25;12.88;;;;;;;;;;5029700;28;20029;-55
2023/09/14 08:50:27;;;;;;;27.10;12.85;;;;;;;;;;5029731;28;20031;-54
2023/09/14 08:52:53;;;;;;;17.02;11.48;;;;;;;;;;5029588;28;20059;-57
2023/09/14 08:55:20;;;;;;;16.83;12.20;;;;;;;;;;5012201;28;20026;-57
2023/09/14 08:57:47;;;;;;;20.40;12.00;;;;;;;;;;5029649;28;20026;-58
2023/09/14 09:00:17;;;;;;;16.45;11.90;;;;;;;;;;5029190;28;20036;-56
2023/09/14 09:02:44;;;;;;;24.30;12.75;;;;;;;;;;5029630;28;20022;-56
2023/09/14 09:05:11;;;;;;;18.08;11.98;;;;;;;;;;5029531;28;20030;-57
2023/09/14 09:07:38;;;;;;;20.00;12.45;;;;;;;;;;5029408;28;20505;-54
2023/09/14 09:10:06;;;;;;;19.67;13.38;;;;;;;;;;5029343;28;20069;-54
2023/09/14 09:12:32;;;;;;;18.40;12.45;;;;;;;;;;5029541;28;20057;-57
2023/09/14 09:15:02;;;;;;;19.50;12.60;;;;;;;;;;5029571;28;20061;-58
2023/09/14 09:17:37;;;;;;;18.08;12.38;;;;;;;;;;5013615;28;20442;-58
2023/09/14 09:20:11;;;;;;;19.65;12.93;;;;;;;;;;5033209;28;20544;-56
2023/09/14 09:22:42;;;;;;;19.27;12.63;;;;;;;;;;5033485;28;20033;-57
2023/09/14 09:25:09;;;;;;;19.55;12.20;;;;;;;;;;5033207;28;20507;-58
2023/09/14 09:27:35;;;;;;;18.70;12.90;;;;;;;;;;5033370;28;20025;-56
2023/09/14 09:30:01;;;;;;;16.13;12.20;;;;;;;;;;5033264;28;20386;-55
2023/09/14 09:32:27;;;;;;;17.95;13.45;;;;;;;;;;5015768;28;20391;-56
2023/09/14 09:34:53;;;;;;;20.05;13.30;;;;;;;;;;5032918;28;20037;-57
2023/09/14 09:37:19;;;;;;;17.83;12.98;;;;;;;;;;5033124;28;20095;-54
2023/09/14 09:39:47;;;;;;;18.98;12.73;;;;;;;;;;5032707;28;20021;-57
2023/09/14 09:42:13;;;;;;;23.05;14.32;;;;;;;;;;5015127;28;20091;-55
2023/09/14 09:44:40;;;;;;;17.70;13.10;;;;;;;;;;5032927;28;20113;-54
2023/09/14 09:47:08;;;;;;;22.70;13.75;;;;;;;;;;5032946;28;20053;-57
2023/09/14 09:49:36;;;;;;;20.33;13.80;;;;;;;;;;5032609;28;20021;-56
2023/09/14 09:52:02;;;;;;;25.10;15.43;;;;;;;;;;5009020;28;20026;-57
2023/09/14 09:54:28;;;;;;;19.95;12.70;;;;;;;;;;5019462;28;20129;-57
2023/09/14 09:56:55;;;;;;;19.35;12.93;;;;;;;;;;5013302;28;20089;-57
2023/09/14 09:59:25;;;;;;;18.15;13.02;;;;;;;;;;5026768;28;20045;-53
2023/09/14 10:01:51;;;;;;;17.77;12.60;;;;;;;;;;5032427;28;20037;-56
2023/09/14 10:04:17;;;;;;;16.42;12.02;;;;;;;;;;5032894;28;20044;-57
2023/09/14 10:06:55;;;;;;;18.45;12.85;;;;;;;;;;5032651;28;20415;-55
2023/09/14 10:09:24;;;;;;;19.52;13.10;;;;;;;;;;5021244;28;20030;-54
2023/09/14 10:11:50;;;;;;;;;;;;;;;;;;5012711;28;20434;-54
2023/09/14 10:14:16;;;;;;;16.40;12.57;;;;;;;;;;5012401;28;19981;-56
2023/09/14 10:16:43;;;;;;;24.58;14.45;;;;;;;;;;5015004;28;20026;-56
2023/09/14 10:19:09;;;;;;;21.15;13.20;;;;;;;;;;5051800;28;20127;-57
2023/09/14 10:21:42;;;;;;;22.92;12.80;;;;;;;;;;5051617;28;20077;-57
2023/09/14 10:24:08;;;;;;;17.58;13.02;;;;;;;;;;5052004;28;20060;-57
2023/09/14 10:26:36;;;;;;;19.65;13.43;;;;;;;;;;5052041;28;20025;-57
2023/09/14 10:29:04;;;;;;;20.63;12.77;;;;;;;;;;5051907;28;20048;-57
2023/09/14 10:31:32;;;;;;;19.42;12.95;;;;;;;;;;5052149;28;20094;-57
2023/09/14 10:33:59;;;;;;;19.23;13.63;;;;;;;;;;5052237;28;20537;-58
2023/09/14 10:36:28;;;;;;;19.60;12.80;;;;;;;;;;5052059;28;20017;-57
2023/09/14 10:38:55;;;;;;;20.13;12.90;;;;;;;;;;5051898;28;20416;-54
2023/09/14 10:41:22;;;;;;;19.92;13.10;;;;;;;;;;5051812;28;20027;-53
2023/09/14 10:43:48;;;;;;;19.33;12.37;;;;;;;;;;5051899;28;20029;-56
2023/09/14 10:46:17;;;;;;;20.38;12.23;;;;;;;;;;5051883;28;20649;-56
2023/09/14 10:48:43;;;;;;;;;;;;;;;;;;5051890;28;20107;-57
2023/09/14 10:51:13;;;;;;;19.33;12.38;;;;;;;;;;5051244;28;20058;-57
2023/09/14 10:53:39;;;;;;;18.65;12.73;;;;;;;;;;5051226;28;20494;-56
2023/09/14 10:56:05;;;;;;;19.00;12.90;;;;;;;;;;5033725;28;20032;-57
2023/09/14 10:58:41;;;;;;;19.02;12.93;;;;;;;;;;5044457;28;20391;-55
2023/09/14 11:01:10;;;;;;;20.65;13.07;;;;;;;;;;5031325;28;20024;-56
2023/09/14 11:04:05;;;;;;;17.92;12.93;;;;;;;;;;5031721;28;20034;-57
2023/09/14 11:06:44;;;;;;;18.00;12.68;;;;;;;;;;5032322;28;20376;-57
2023/09/14 11:09:10;;;;;;;18.85;12.45;;;;;;;;;;5031473;28;20100;-53
2023/09/14 11:11:39;;;;;;;17.35;13.10;;;;;;;;;;5031329;28;20033;-53
2023/09/14 11:14:09;;;;;;;20.25;13.40;;;;;;;;;;5045577;28;20028;-55
2023/09/14 11:16:41;;;;;;;19.30;13.35;;;;;;;;;;5051417;28;20025;-57
2023/09/14 11:19:07;;;;;;;22.17;13.88;;;;;;;;;;5045104;28;20029;-54
2023/09/14 11:21:33;;;;;;;16.52;12.70;;;;;;;;;;5031089;28;20501;-56
2023/09/14 11:24:01;;;;;;;17.92;14.40;;;;;;;;;;5030900;28;20017;-56
2023/09/14 11:26:33;;;;;;;20.08;14.57;;;;;;;;;;5030986;28;20144;-57
2023/09/14 11:28:59;;;;;;;17.95;13.82;;;;;;;;;;5029936;28;20545;-59
2023/09/14 11:31:35;;;;;;;20.08;13.93;;;;;;;;;;5029856;28;20025;-57
2023/09/14 11:34:06;;;;;;;18.50;13.95;;;;;;;;;;5031587;28;20035;-58
2023/09/14 11:36:32;;;;;;;17.55;13.70;;;;;;;;;;5031367;28;20147;-58
2023/09/14 11:38:59;;;;;;;18.58;13.75;;;;;;;;;;5029402;28;20029;-56
2023/09/14 11:41:44;;;;;;;18.25;14.07;;;;;;;;;;5030161;28;20433;-59
2023/09/14 11:44:10;;;;;;;20.10;14.48;;;;;;;;;;5030870;28;20022;-58
2023/09/14 11:46:37;;;;;;;18.05;14.25;;;;;;;;;;5030479;28;20028;-59
2023/09/14 11:49:04;;;;;;;19.08;14.50;;;;;;;;;;5030515;28;20071;-58
2023/09/14 11:51:30;;;;;;;19.05;13.68;;;;;;;;;;5028854;28;20032;-58
2023/09/14 11:53:58;;;;;;;17.27;13.85;;;;;;;;;;5030466;28;20025;-61
2023/09/14 11:56:28;;;;;;;18.67;14.02;;;;;;;;;;5034624;28;20017;-59
2023/09/14 11:58:58;;;;;;;19.35;14.05;;;;;;;;;;5040212;28;20096;-59
2023/09/14 12:01:24;;;;;;;18.05;13.88;;;;;;;;;;5012196;28;20430;-58
2023/09/14 12:03:50;;;;;;;20.05;14.00;;;;;;;;;;5027774;28;20067;-59
2023/09/14 12:06:16;;;;;;;18.33;13.32;;;;;;;;;;5029970;28;20053;-58
2023/09/14 12:08:49;;;;;;;20.17;14.20;;;;;;;;;;5012711;28;20057;-55
2023/09/14 12:11:15;;;;;;;20.30;13.82;;;;;;;;;;5029787;28;20025;-56
2023/09/14 12:13:54;;;;;;;17.17;14.00;;;;;;;;;;5029802;28;20041;-61
2023/09/14 12:16:21;;;;;;;18.58;13.60;;;;;;;;;;5030004;28;20026;-57
2023/09/14 12:18:47;;;;;;;22.92;15.50;;;;;;;;;;5030678;28;20100;-60
2023/09/14 12:21:14;;;;;;;21.55;14.82;;;;;;;;;;5029751;28;20071;-58
2023/09/14 12:23:41;;;;;;;18.42;14.10;;;;;;;;;;5029823;28;20060;-59
2023/09/14 12:26:09;;;;;;;17.65;13.95;;;;;;;;;;5005017;28;20064;-59
2023/09/14 12:28:35;;;;;;;18.52;14.27;;;;;;;;;;5020459;28;20026;-59
2023/09/14 12:31:01;;;;;;;20.10;15.00;;;;;;;;;;5018158;28;20034;-55
2023/09/14 12:33:28;;;;;;;17.80;14.57;;;;;;;;;;5023639;28;20117;-60
2023/09/14 12:35:54;;;;;;;18.80;15.70;;;;;;;;;;5000258;28;20018;-60
2023/09/14 12:38:20;;;;;;;17.40;14.65;;;;;;;;;;5020155;28;20040;-59
2023/09/14 12:40:46;;;;;;;19.85;14.98;;;;;;;;;;5021857;28;20097;-61
2023/09/14 12:43:13;;;;;;;18.30;15.48;;;;;;;;;;5005347;28;20035;-60
2023/09/14 12:45:40;;;;;;;20.98;15.27;;;;;;;;;;5022166;28;20488;-59
2023/09/14 12:48:07;;;;;;;19.90;16.00;;;;;;;;;;5012558;28;20479;-60
2023/09/14 12:50:36;;;;;;;20.77;16.83;;;;;;;;;;4991799;28;20295;-50
2023/09/14 12:53:09;;;;;;;19.08;16.08;;;;;;;;;;5008913;28;20052;-57
2023/09/14 12:55:39;;;;;;;20.23;15.75;;;;;;;;;;5010106;28;20022;-57
2023/09/14 12:58:05;;;;;;;18.73;15.48;;;;;;;;;;5012477;28;20101;-58
2023/09/14 13:00:33;;;;;;;18.77;15.82;;;;;;;;;;5018791;28;20076;-60
2023/09/14 13:02:59;;;;;;;;;;;;;;;;;;5019186;28;20068;-58
2023/09/14 13:05:26;;;;;;;19.92;15.65;;;;;;;;;;5020045;28;19905;-57
2023/09/14 13:07:54;;;;;;;17.30;15.32;;;;;;;;;;5014866;28;20026;-61
2023/09/14 13:10:24;;;;;;;18.63;15.48;;;;;;;;;;4992078;28;20041;-58
2023/09/14 13:12:50;;;;;;;19.80;16.13;;;;;;;;;;5012189;28;20116;-59
2023/09/14 13:15:34;;;;;;;21.08;16.63;;;;;;;;;;5018313;28;20100;-55
2023/09/14 13:18:05;;;;;;;19.95;16.55;;;;;;;;;;5021796;28;20040;-59
2023/09/14 13:20:32;;;;;;;18.20;16.25;;;;;;;;;;5016265;28;20022;-62
2023/09/14 13:22:59;;;;;;;19.73;16.25;;;;;;;;;;5018754;28;20028;-58
2023/09/14 13:25:25;;;;;;;18.98;16.02;;;;;;;;;;5017788;28;20034;-58
2023/09/14 13:27:51;;;;;;;19.67;16.10;;;;;;;;;;5020844;28;20051;-59
2023/09/14 13:30:17;;;;;;;17.73;15.80;;;;;;;;;;5018412;28;20017;-59
2023/09/14 13:32:46;;;;;;;18.42;16.20;;;;;;;;;;5017550;28;20029;-58
2023/09/14 13:35:13;;;;;;;21.15;16.98;;;;;;;;;;5020447;28;20558;-60
2023/09/14 13:37:40;;;;;;;19.48;16.40;;;;;;;;;;5017646;28;20026;-58
2023/09/14 13:40:18;;;;;;;19.13;16.58;;;;;;;;;;5009199;28;20515;-60
2023/09/14 13:42:44;;;;;;;;;;;;;;;;;;5009864;28;20189;-61
2023/09/14 13:45:10;;;;;;;19.90;16.08;;;;;;;;;;4991721;28;19989;-61
2023/09/14 13:47:36;;;;;;;22.98;17.85;;;;;;;;;;5009392;28;20518;-57
2023/09/14 13:50:06;;;;;;;19.77;16.23;;;;;;;;;;5008792;28;20555;-55
2023/09/14 13:52:32;;;;;;;19.90;15.57;;;;;;;;;;5009219;28;20491;-58
2023/09/14 13:54:58;;;;;;;19.40;16.08;;;;;;;;;;5009237;28;20107;-57
2023/09/14 13:57:24;;;;;;;20.40;16.08;;;;;;;;;;5009468;28;20026;-54
2023/09/14 13:59:50;;;;;;;18.90;15.57;;;;;;;;;;5026305;28;20462;-62
2023/09/14 14:02:17;;;;;;;20.52;16.00;;;;;;;;;;5023152;28;20057;-61
2023/09/14 14:04:43;;;;;;;20.55;15.80;;;;;;;;;;5022849;28;20029;-56
2023/09/14 14:07:11;;;;;;;20.13;15.80;;;;;;;;;;5021383;28;20025;-57
2023/09/14 14:09:37;;;;;;;18.58;15.45;;;;;;;;;;5022687;28;20028;-58
2023/09/14 14:12:04;;;;;;;21.92;16.20;;;;;;;;;;5021487;28;20030;-57
2023/09/14 14:14:30;;;;;;;19.75;16.27;;;;;;;;;;5021487;28;20026;-59
2023/09/14 14:16:57;;;;;;;21.08;15.90;;;;;;;;;;5004836;28;20018;-61
2023/09/14 14:19:23;;;;;;;19.20;16.13;;;;;;;;;;5021963;28;20041;-60
2023/09/14 14:21:49;;;;;;;18.05;14.85;;;;;;;;;;5022869;28;20079;-56